Maasdijk, Netherlands
Current Conditions -  °F | °C
As of 12:25 AM on Wednesday 26 Nov 2014 (Local Time) from EHRD Reporting Station
Clear Clear  
Wind Chill: 34°   Ceiling: Unl
Heat Index: 41°   Visibility: 6mi
Dew Point: 37°   Wind: 13mph
Humidity: 87%   Direction: 90°E
Pressure: 30.09"   Gusts: NA
Location:  51.96°N, 4.21°E
Report Text: EHRD 252325Z AUTO 09011KT 9999 NSC 05/03 Q1019 NOSIG
Loading
Personal Weather Stations






























Interactive Weather Map New forecast layout! Learn more

10-Day Weather Forecast

Advertisements
Track Severe Weather on mobile